sensor_id;sensor_type;location;lat;lon;timestamp;P1;durP1;ratioP1;P2;durP2;ratioP2
55756;SDS011;41676;44.610;44.078;2023-08-20T00:01:27;17.25;;;3.75;;
55756;SDS011;41676;44.610;44.078;2023-08-20T00:06:28;9.90;;;3.05;;
55756;SDS011;41676;44.610;44.078;2023-08-20T00:11:29;13.27;;;3.58;;
55756;SDS011;41676;44.610;44.078;2023-08-20T00:16:31;27.95;;;4.30;;
55756;SDS011;41676;44.610;44.078;2023-08-20T00:21:32;8.15;;;3.38;;
55756;SDS011;41676;44.610;44.078;2023-08-20T00:26:34;17.10;;;3.65;;
55756;SDS011;41676;44.610;44.078;2023-08-20T00:31:35;10.25;;;3.75;;
55756;SDS011;41676;44.610;44.078;2023-08-20T00:36:35;12.70;;;3.40;;
55756;SDS011;41676;44.610;44.078;2023-08-20T00:41:36;13.32;;;3.40;;
55756;SDS011;41676;44.610;44.078;2023-08-20T00:46:37;6.72;;;3.22;;
55756;SDS011;41676;44.610;44.078;2023-08-20T00:51:38;15.27;;;3.90;;
55756;SDS011;41676;44.610;44.078;2023-08-20T00:56:39;7.25;;;3.30;;
55756;SDS011;41676;44.610;44.078;2023-08-20T01:01:40;9.30;;;3.63;;
55756;SDS011;41676;44.610;44.078;2023-08-20T01:06:44;11.23;;;3.85;;
55756;SDS011;41676;44.610;44.078;2023-08-20T01:11:55;14.95;;;4.13;;
55756;SDS011;41676;44.610;44.078;2023-08-20T01:16:59;19.30;;;4.00;;
55756;SDS011;41676;44.610;44.078;2023-08-20T01:27:07;12.43;;;3.90;;
55756;SDS011;41676;44.610;44.078;2023-08-20T01:32:09;48.75;;;6.25;;
55756;SDS011;41676;44.610;44.078;2023-08-20T01:37:12;111.77;;;8.20;;
55756;SDS011;41676;44.610;44.078;2023-08-20T01:42:13;36.65;;;5.22;;
55756;SDS011;41676;44.610;44.078;2023-08-20T01:47:13;75.15;;;8.20;;
55756;SDS011;41676;44.610;44.078;2023-08-20T01:52:14;72.70;;;6.95;;
55756;SDS011;41676;44.610;44.078;2023-08-20T01:57:15;91.10;;;8.93;;
55756;SDS011;41676;44.610;44.078;2023-08-20T02:02:16;56.75;;;7.35;;
55756;SDS011;41676;44.610;44.078;2023-08-20T02:07:17;203.40;;;16.17;;
55756;SDS011;41676;44.610;44.078;2023-08-20T02:12:18;97.28;;;9.45;;
55756;SDS011;41676;44.610;44.078;2023-08-20T02:17:18;34.60;;;5.55;;
55756;SDS011;41676;44.610;44.078;2023-08-20T02:22:19;158.00;;;11.90;;
55756;SDS011;41676;44.610;44.078;2023-08-20T02:27:21;287.10;;;22.63;;
55756;SDS011;41676;44.610;44.078;2023-08-20T02:32:22;157.98;;;12.95;;
55756;SDS011;41676;44.610;44.078;2023-08-20T02:37:22;170.65;;;14.18;;
55756;SDS011;41676;44.610;44.078;2023-08-20T02:42:23;48.05;;;6.32;;
55756;SDS011;41676;44.610;44.078;2023-08-20T02:47:24;77.93;;;6.43;;
55756;SDS011;41676;44.610;44.078;2023-08-20T02:52:25;65.68;;;7.47;;
55756;SDS011;41676;44.610;44.078;2023-08-20T02:57:25;63.10;;;6.88;;
55756;SDS011;41676;44.610;44.078;2023-08-20T03:02:26;205.25;;;15.48;;
55756;SDS011;41676;44.610;44.078;2023-08-20T03:07:27;33.17;;;5.82;;
55756;SDS011;41676;44.610;44.078;2023-08-20T03:12:28;42.60;;;5.53;;
55756;SDS011;41676;44.610;44.078;2023-08-20T03:17:29;40.38;;;5.43;;
55756;SDS011;41676;44.610;44.078;2023-08-20T03:22:30;24.48;;;4.70;;
55756;SDS011;41676;44.610;44.078;2023-08-20T03:27:31;28.17;;;4.53;;
55756;SDS011;41676;44.610;44.078;2023-08-20T03:32:32;24.45;;;3.55;;
55756;SDS011;41676;44.610;44.078;2023-08-20T03:37:32;17.77;;;3.65;;
55756;SDS011;41676;44.610;44.078;2023-08-20T03:42:33;52.22;;;5.90;;
55756;SDS011;41676;44.610;44.078;2023-08-20T03:47:34;25.77;;;3.95;;
55756;SDS011;41676;44.610;44.078;2023-08-20T03:52:35;23.30;;;3.78;;
55756;SDS011;41676;44.610;44.078;2023-08-20T03:57:36;36.25;;;4.38;;
55756;SDS011;41676;44.610;44.078;2023-08-20T04:02:36;17.50;;;3.42;;
55756;SDS011;41676;44.610;44.078;2023-08-20T04:07:37;17.13;;;3.80;;
55756;SDS011;41676;44.610;44.078;2023-08-20T04:12:38;15.68;;;3.45;;
55756;SDS011;41676;44.610;44.078;2023-08-20T04:17:39;11.00;;;3.78;;
55756;SDS011;41676;44.610;44.078;2023-08-20T04:22:40;17.40;;;3.83;;
55756;SDS011;41676;44.610;44.078;2023-08-20T04:27:42;23.95;;;4.10;;
55756;SDS011;41676;44.610;44.078;2023-08-20T04:32:42;12.82;;;3.72;;
55756;SDS011;41676;44.610;44.078;2023-08-20T04:37:43;10.00;;;3.72;;
55756;SDS011;41676;44.610;44.078;2023-08-20T04:42:44;14.95;;;3.60;;
55756;SDS011;41676;44.610;44.078;2023-08-20T04:47:48;13.77;;;4.15;;
55756;SDS011;41676;44.610;44.078;2023-08-20T04:52:49;8.25;;;3.55;;
55756;SDS011;41676;44.610;44.078;2023-08-20T04:57:49;14.07;;;3.70;;
55756;SDS011;41676;44.610;44.078;2023-08-20T05:02:51;13.27;;;3.58;;
55756;SDS011;41676;44.610;44.078;2023-08-20T05:07:51;15.52;;;3.92;;
55756;SDS011;41676;44.610;44.078;2023-08-20T05:12:52;13.80;;;4.47;;
55756;SDS011;41676;44.610;44.078;2023-08-20T05:17:53;14.57;;;4.10;;
55756;SDS011;41676;44.610;44.078;2023-08-20T05:22:54;18.33;;;3.70;;
55756;SDS011;41676;44.610;44.078;2023-08-20T05:27:54;14.05;;;3.47;;
55756;SDS011;41676;44.610;44.078;2023-08-20T05:32:55;14.05;;;3.53;;
55756;SDS011;41676;44.610;44.078;2023-08-20T05:37:56;12.77;;;3.55;;
55756;SDS011;41676;44.610;44.078;2023-08-20T05:42:57;26.05;;;4.85;;
55756;SDS011;41676;44.610;44.078;2023-08-20T05:47:58;37.33;;;5.03;;
55756;SDS011;41676;44.610;44.078;2023-08-20T05:52:59;29.17;;;4.20;;
55756;SDS011;41676;44.610;44.078;2023-08-20T05:58:00;22.43;;;4.23;;
55756;SDS011;41676;44.610;44.078;2023-08-20T06:03:01;10.75;;;3.55;;
55756;SDS011;41676;44.610;44.078;2023-08-20T06:08:02;23.65;;;4.45;;
55756;SDS011;41676;44.610;44.078;2023-08-20T06:13:03;17.63;;;4.40;;
55756;SDS011;41676;44.610;44.078;2023-08-20T06:18:04;18.60;;;4.75;;
55756;SDS011;41676;44.610;44.078;2023-08-20T06:23:05;29.40;;;4.75;;
55756;SDS011;41676;44.610;44.078;2023-08-20T06:28:06;20.23;;;3.30;;
55756;SDS011;41676;44.610;44.078;2023-08-20T06:33:06;9.73;;;2.50;;
55756;SDS011;41676;44.610;44.078;2023-08-20T06:38:07;22.42;;;2.80;;
55756;SDS011;41676;44.610;44.078;2023-08-20T06:43:08;8.55;;;2.60;;
55756;SDS011;41676;44.610;44.078;2023-08-20T06:48:09;14.27;;;2.50;;
55756;SDS011;41676;44.610;44.078;2023-08-20T06:53:10;16.60;;;2.83;;
55756;SDS011;41676;44.610;44.078;2023-08-20T06:58:10;11.40;;;2.90;;
55756;SDS011;41676;44.610;44.078;2023-08-20T07:03:11;13.40;;;2.70;;
55756;SDS011;41676;44.610;44.078;2023-08-20T07:08:12;18.48;;;3.67;;
55756;SDS011;41676;44.610;44.078;2023-08-20T07:13:12;23.52;;;3.08;;
55756;SDS011;41676;44.610;44.078;2023-08-20T07:18:13;29.10;;;2.78;;
55756;SDS011;41676;44.610;44.078;2023-08-20T07:23:15;11.10;;;2.03;;
55756;SDS011;41676;44.610;44.078;2023-08-20T07:28:16;17.73;;;2.63;;
55756;SDS011;41676;44.610;44.078;2023-08-20T07:33:26;17.10;;;2.65;;
55756;SDS011;41676;44.610;44.078;2023-08-20T07:38:27;16.52;;;2.42;;
55756;SDS011;41676;44.610;44.078;2023-08-20T07:43:28;13.20;;;2.70;;
55756;SDS011;41676;44.610;44.078;2023-08-20T07:48:28;13.85;;;2.40;;
55756;SDS011;41676;44.610;44.078;2023-08-20T07:53:29;9.02;;;1.95;;
55756;SDS011;41676;44.610;44.078;2023-08-20T07:58:31;17.85;;;3.05;;
55756;SDS011;41676;44.610;44.078;2023-08-20T08:03:32;36.22;;;4.78;;
55756;SDS011;41676;44.610;44.078;2023-08-20T08:08:32;17.75;;;3.15;;
55756;SDS011;41676;44.610;44.078;2023-08-20T08:13:33;15.85;;;2.78;;
55756;SDS011;41676;44.610;44.078;2023-08-20T08:18:34;14.65;;;3.10;;
55756;SDS011;41676;44.610;44.078;2023-08-20T08:23:35;11.68;;;1.95;;
55756;SDS011;41676;44.610;44.078;2023-08-20T08:28:35;8.75;;;2.30;;
55756;SDS011;41676;44.610;44.078;2023-08-20T08:33:36;13.90;;;3.28;;
55756;SDS011;41676;44.610;44.078;2023-08-20T08:38:37;16.50;;;2.30;;
55756;SDS011;41676;44.610;44.078;2023-08-20T08:43:38;16.42;;;3.20;;
55756;SDS011;41676;44.610;44.078;2023-08-20T08:53:42;17.85;;;3.30;;
55756;SDS011;41676;44.610;44.078;2023-08-20T08:58:47;13.73;;;2.67;;
55756;SDS011;41676;44.610;44.078;2023-08-20T09:03:47;10.97;;;2.67;;
55756;SDS011;41676;44.610;44.078;2023-08-20T09:08:49;11.48;;;2.67;;
55756;SDS011;41676;44.610;44.078;2023-08-20T09:13:50;10.60;;;2.30;;
55756;SDS011;41676;44.610;44.078;2023-08-20T09:18:51;44.60;;;4.28;;
55756;SDS011;41676;44.610;44.078;2023-08-20T09:23:52;13.20;;;4.00;;
55756;SDS011;41676;44.610;44.078;2023-08-20T09:28:54;20.90;;;3.17;;
55756;SDS011;41676;44.610;44.078;2023-08-20T09:33:57;11.00;;;2.50;;
55756;SDS011;41676;44.610;44.078;2023-08-20T09:38:59;8.55;;;2.88;;
55756;SDS011;41676;44.610;44.078;2023-08-20T09:43:59;13.75;;;3.67;;
55756;SDS011;41676;44.610;44.078;2023-08-20T09:49:02;12.48;;;3.33;;
55756;SDS011;41676;44.610;44.078;2023-08-20T09:54:16;18.70;;;3.10;;
55756;SDS011;41676;44.610;44.078;2023-08-20T09:59:21;7.78;;;3.30;;
55756;SDS011;41676;44.610;44.078;2023-08-20T10:04:23;13.13;;;3.40;;
55756;SDS011;41676;44.610;44.078;2023-08-20T10:09:24;16.90;;;3.58;;
55756;SDS011;41676;44.610;44.078;2023-08-20T10:14:26;8.30;;;2.88;;
55756;SDS011;41676;44.610;44.078;2023-08-20T10:19:28;14.52;;;3.00;;
55756;SDS011;41676;44.610;44.078;2023-08-20T10:24:38;10.33;;;3.27;;
55756;SDS011;41676;44.610;44.078;2023-08-20T10:34:52;10.25;;;2.95;;
55756;SDS011;41676;44.610;44.078;2023-08-20T10:39:58;28.65;;;4.40;;
55756;SDS011;41676;44.610;44.078;2023-08-20T10:45:05;10.57;;;2.80;;
55756;SDS011;41676;44.610;44.078;2023-08-20T10:50:10;14.70;;;2.67;;
55756;SDS011;41676;44.610;44.078;2023-08-20T10:55:16;6.85;;;2.13;;
55756;SDS011;41676;44.610;44.078;2023-08-20T11:00:23;15.30;;;2.72;;
55756;SDS011;41676;44.610;44.078;2023-08-20T11:05:24;11.30;;;2.67;;
55756;SDS011;41676;44.610;44.078;2023-08-20T11:10:25;13.80;;;2.80;;
55756;SDS011;41676;44.610;44.078;2023-08-20T11:15:26;12.13;;;1.90;;
55756;SDS011;41676;44.610;44.078;2023-08-20T11:20:27;16.10;;;2.87;;
55756;SDS011;41676;44.610;44.078;2023-08-20T11:25:28;11.45;;;2.28;;
55756;SDS011;41676;44.610;44.078;2023-08-20T11:30:29;16.83;;;2.43;;
55756;SDS011;41676;44.610;44.078;2023-08-20T11:35:30;5.93;;;2.15;;
55756;SDS011;41676;44.610;44.078;2023-08-20T11:40:31;6.83;;;1.97;;
55756;SDS011;41676;44.610;44.078;2023-08-20T11:45:32;11.97;;;2.33;;
55756;SDS011;41676;44.610;44.078;2023-08-20T11:50:33;15.90;;;2.70;;
55756;SDS011;41676;44.610;44.078;2023-08-20T11:55:38;12.07;;;1.90;;
55756;SDS011;41676;44.610;44.078;2023-08-20T12:00:40;7.60;;;2.28;;
55756;SDS011;41676;44.610;44.078;2023-08-20T12:05:41;10.60;;;2.33;;
55756;SDS011;41676;44.610;44.078;2023-08-20T12:10:43;8.63;;;1.77;;
55756;SDS011;41676;44.610;44.078;2023-08-20T12:15:44;10.40;;;2.60;;
55756;SDS011;41676;44.610;44.078;2023-08-20T12:20:45;7.60;;;1.90;;
55756;SDS011;41676;44.610;44.078;2023-08-20T12:25:49;19.70;;;2.70;;
55756;SDS011;41676;44.610;44.078;2023-08-20T12:30:51;8.40;;;2.17;;
55756;SDS011;41676;44.610;44.078;2023-08-20T12:35:55;12.60;;;2.57;;
55756;SDS011;41676;44.610;44.078;2023-08-20T12:40:56;23.40;;;3.13;;
55756;SDS011;41676;44.610;44.078;2023-08-20T12:45:57;7.67;;;1.90;;
55756;SDS011;41676;44.610;44.078;2023-08-20T12:50:58;15.73;;;1.98;;
55756;SDS011;41676;44.610;44.078;2023-08-20T12:55:58;13.23;;;2.15;;
55756;SDS011;41676;44.610;44.078;2023-08-20T13:00:59;9.55;;;2.10;;
55756;SDS011;41676;44.610;44.078;2023-08-20T13:06:01;6.13;;;1.83;;
55756;SDS011;41676;44.610;44.078;2023-08-20T13:11:02;8.90;;;2.10;;
55756;SDS011;41676;44.610;44.078;2023-08-20T13:16:04;13.43;;;1.95;;
55756;SDS011;41676;44.610;44.078;2023-08-20T13:21:05;10.50;;;1.70;;
55756;SDS011;41676;44.610;44.078;2023-08-20T13:26:05;6.70;;;1.88;;
55756;SDS011;41676;44.610;44.078;2023-08-20T13:31:06;5.28;;;1.63;;
55756;SDS011;41676;44.610;44.078;2023-08-20T13:36:07;9.57;;;1.83;;
55756;SDS011;41676;44.610;44.078;2023-08-20T13:41:08;15.35;;;2.38;;
55756;SDS011;41676;44.610;44.078;2023-08-20T13:46:09;7.55;;;2.08;;
55756;SDS011;41676;44.610;44.078;2023-08-20T13:51:10;15.80;;;2.33;;
55756;SDS011;41676;44.610;44.078;2023-08-20T13:56:11;12.07;;;2.15;;
55756;SDS011;41676;44.610;44.078;2023-08-20T14:01:12;10.88;;;2.17;;
55756;SDS011;41676;44.610;44.078;2023-08-20T14:06:13;7.68;;;1.77;;
55756;SDS011;41676;44.610;44.078;2023-08-20T14:11:14;12.25;;;2.20;;
55756;SDS011;41676;44.610;44.078;2023-08-20T14:16:15;15.85;;;2.33;;
55756;SDS011;41676;44.610;44.078;2023-08-20T14:21:16;40.85;;;3.97;;
55756;SDS011;41676;44.610;44.078;2023-08-20T14:26:17;18.40;;;2.90;;
55756;SDS011;41676;44.610;44.078;2023-08-20T14:31:18;25.57;;;3.37;;
55756;SDS011;41676;44.610;44.078;2023-08-20T14:36:19;20.85;;;3.40;;
55756;SDS011;41676;44.610;44.078;2023-08-20T14:41:20;38.47;;;3.10;;
55756;SDS011;41676;44.610;44.078;2023-08-20T14:46:21;68.55;;;6.68;;
55756;SDS011;41676;44.610;44.078;2023-08-20T14:51:22;13.52;;;3.25;;
55756;SDS011;41676;44.610;44.078;2023-08-20T14:56:23;49.57;;;5.23;;
55756;SDS011;41676;44.610;44.078;2023-08-20T15:01:24;33.67;;;3.75;;
55756;SDS011;41676;44.610;44.078;2023-08-20T15:06:24;16.52;;;3.13;;
55756;SDS011;41676;44.610;44.078;2023-08-20T15:11:26;22.75;;;3.20;;
55756;SDS011;41676;44.610;44.078;2023-08-20T15:16:28;13.77;;;2.20;;
55756;SDS011;41676;44.610;44.078;2023-08-20T15:21:29;13.13;;;2.50;;
55756;SDS011;41676;44.610;44.078;2023-08-20T15:26:30;13.02;;;2.83;;
55756;SDS011;41676;44.610;44.078;2023-08-20T15:31:30;11.63;;;2.58;;
55756;SDS011;41676;44.610;44.078;2023-08-20T15:36:31;12.60;;;2.53;;
55756;SDS011;41676;44.610;44.078;2023-08-20T15:41:32;4.45;;;2.13;;
55756;SDS011;41676;44.610;44.078;2023-08-20T15:46:33;30.50;;;4.13;;
55756;SDS011;41676;44.610;44.078;2023-08-20T15:51:35;20.17;;;4.18;;
55756;SDS011;41676;44.610;44.078;2023-08-20T15:56:38;54.80;;;6.75;;
55756;SDS011;41676;44.610;44.078;2023-08-20T16:01:39;69.57;;;8.52;;
55756;SDS011;41676;44.610;44.078;2023-08-20T16:06:40;53.63;;;6.57;;
55756;SDS011;41676;44.610;44.078;2023-08-20T16:11:41;54.97;;;8.57;;
55756;SDS011;41676;44.610;44.078;2023-08-20T16:16:42;147.93;;;32.47;;
55756;SDS011;41676;44.610;44.078;2023-08-20T16:21:43;169.52;;;42.70;;
55756;SDS011;41676;44.610;44.078;2023-08-20T16:26:43;149.73;;;35.88;;
55756;SDS011;41676;44.610;44.078;2023-08-20T16:31:44;179.73;;;51.13;;
55756;SDS011;41676;44.610;44.078;2023-08-20T16:36:45;143.20;;;31.38;;
55756;SDS011;41676;44.610;44.078;2023-08-20T16:41:46;155.95;;;26.20;;
55756;SDS011;41676;44.610;44.078;2023-08-20T16:46:46;145.88;;;23.35;;
55756;SDS011;41676;44.610;44.078;2023-08-20T16:51:48;66.60;;;12.75;;
55756;SDS011;41676;44.610;44.078;2023-08-20T16:56:48;53.88;;;11.82;;
55756;SDS011;41676;44.610;44.078;2023-08-20T17:01:49;61.85;;;10.48;;
55756;SDS011;41676;44.610;44.078;2023-08-20T17:06:50;46.85;;;9.10;;
55756;SDS011;41676;44.610;44.078;2023-08-20T17:11:51;56.90;;;10.70;;
55756;SDS011;41676;44.610;44.078;2023-08-20T17:16:51;64.00;;;12.48;;
55756;SDS011;41676;44.610;44.078;2023-08-20T17:21:52;88.03;;;18.08;;
55756;SDS011;41676;44.610;44.078;2023-08-20T17:26:53;64.97;;;11.60;;
55756;SDS011;41676;44.610;44.078;2023-08-20T17:31:54;51.03;;;9.70;;
55756;SDS011;41676;44.610;44.078;2023-08-20T17:36:55;51.80;;;8.18;;
55756;SDS011;41676;44.610;44.078;2023-08-20T17:41:56;58.00;;;8.77;;
55756;SDS011;41676;44.610;44.078;2023-08-20T17:46:56;29.17;;;6.05;;
55756;SDS011;41676;44.610;44.078;2023-08-20T17:51:57;45.22;;;5.85;;
55756;SDS011;41676;44.610;44.078;2023-08-20T17:56:58;30.73;;;5.57;;
55756;SDS011;41676;44.610;44.078;2023-08-20T18:01:59;30.88;;;4.95;;
55756;SDS011;41676;44.610;44.078;2023-08-20T18:07:00;27.77;;;5.50;;
55756;SDS011;41676;44.610;44.078;2023-08-20T18:12:02;27.67;;;5.53;;
55756;SDS011;41676;44.610;44.078;2023-08-20T18:17:04;44.92;;;7.05;;
55756;SDS011;41676;44.610;44.078;2023-08-20T18:22:05;44.67;;;8.27;;
55756;SDS011;41676;44.610;44.078;2023-08-20T18:27:06;36.72;;;7.30;;
55756;SDS011;41676;44.610;44.078;2023-08-20T18:32:07;28.60;;;7.03;;
55756;SDS011;41676;44.610;44.078;2023-08-20T18:37:07;23.48;;;5.78;;
55756;SDS011;41676;44.610;44.078;2023-08-20T18:42:08;21.35;;;5.40;;
55756;SDS011;41676;44.610;44.078;2023-08-20T18:47:09;30.85;;;6.57;;
55756;SDS011;41676;44.610;44.078;2023-08-20T18:52:10;19.13;;;5.18;;
55756;SDS011;41676;44.610;44.078;2023-08-20T18:57:11;14.23;;;4.38;;
55756;SDS011;41676;44.610;44.078;2023-08-20T19:02:13;25.05;;;5.47;;
55756;SDS011;41676;44.610;44.078;2023-08-20T19:07:14;17.63;;;4.22;;
55756;SDS011;41676;44.610;44.078;2023-08-20T19:12:15;9.93;;;4.63;;
55756;SDS011;41676;44.610;44.078;2023-08-20T19:17:15;19.85;;;4.40;;
55756;SDS011;41676;44.610;44.078;2023-08-20T19:22:17;9.68;;;4.40;;
55756;SDS011;41676;44.610;44.078;2023-08-20T19:27:17;23.50;;;6.22;;
55756;SDS011;41676;44.610;44.078;2023-08-20T19:32:19;28.13;;;7.63;;
55756;SDS011;41676;44.610;44.078;2023-08-20T19:37:20;39.35;;;6.70;;
55756;SDS011;41676;44.610;44.078;2023-08-20T19:42:21;19.50;;;4.88;;
55756;SDS011;41676;44.610;44.078;2023-08-20T19:47:21;18.63;;;3.97;;
55756;SDS011;41676;44.610;44.078;2023-08-20T19:52:22;14.02;;;4.55;;
55756;SDS011;41676;44.610;44.078;2023-08-20T19:57:23;24.90;;;6.47;;
55756;SDS011;41676;44.610;44.078;2023-08-20T20:02:24;17.38;;;5.30;;
55756;SDS011;41676;44.610;44.078;2023-08-20T20:07:25;19.38;;;5.40;;
55756;SDS011;41676;44.610;44.078;2023-08-20T20:12:25;15.57;;;3.58;;
55756;SDS011;41676;44.610;44.078;2023-08-20T20:17:26;14.48;;;4.45;;
55756;SDS011;41676;44.610;44.078;2023-08-20T20:22:27;14.18;;;4.00;;
55756;SDS011;41676;44.610;44.078;2023-08-20T20:27:28;13.45;;;3.60;;
55756;SDS011;41676;44.610;44.078;2023-08-20T20:32:34;31.10;;;5.47;;
55756;SDS011;41676;44.610;44.078;2023-08-20T20:37:36;27.30;;;4.60;;
55756;SDS011;41676;44.610;44.078;2023-08-20T20:42:37;22.58;;;3.78;;
55756;SDS011;41676;44.610;44.078;2023-08-20T20:47:37;27.58;;;4.65;;
55756;SDS011;41676;44.610;44.078;2023-08-20T20:52:39;30.25;;;4.63;;
55756;SDS011;41676;44.610;44.078;2023-08-20T20:57:40;34.47;;;5.65;;
55756;SDS011;41676;44.610;44.078;2023-08-20T21:02:40;22.90;;;4.28;;
55756;SDS011;41676;44.610;44.078;2023-08-20T21:07:41;34.47;;;5.43;;
55756;SDS011;41676;44.610;44.078;2023-08-20T21:12:42;26.77;;;4.20;;
55756;SDS011;41676;44.610;44.078;2023-08-20T21:17:43;18.25;;;4.07;;
55756;SDS011;41676;44.610;44.078;2023-08-20T21:22:44;18.13;;;4.10;;
55756;SDS011;41676;44.610;44.078;2023-08-20T21:27:44;17.25;;;3.88;;
55756;SDS011;41676;44.610;44.078;2023-08-20T21:32:45;12.20;;;3.75;;
55756;SDS011;41676;44.610;44.078;2023-08-20T21:37:46;11.23;;;3.42;;
55756;SDS011;41676;44.610;44.078;2023-08-20T21:42:47;14.38;;;3.53;;
55756;SDS011;41676;44.610;44.078;2023-08-20T21:47:47;22.73;;;3.72;;
55756;SDS011;41676;44.610;44.078;2023-08-20T21:52:49;11.68;;;3.38;;
55756;SDS011;41676;44.610;44.078;2023-08-20T21:57:50;16.08;;;4.00;;
55756;SDS011;41676;44.610;44.078;2023-08-20T22:02:50;7.55;;;2.17;;
55756;SDS011;41676;44.610;44.078;2023-08-20T22:07:51;9.65;;;2.20;;
55756;SDS011;41676;44.610;44.078;2023-08-20T22:12:53;10.90;;;2.47;;
55756;SDS011;41676;44.610;44.078;2023-08-20T22:17:54;27.50;;;3.95;;
55756;SDS011;41676;44.610;44.078;2023-08-20T22:22:55;12.75;;;2.53;;
55756;SDS011;41676;44.610;44.078;2023-08-20T22:27:55;38.42;;;4.18;;
55756;SDS011;41676;44.610;44.078;2023-08-20T22:32:56;14.25;;;3.40;;
55756;SDS011;41676;44.610;44.078;2023-08-20T22:38:01;8.75;;;2.58;;
55756;SDS011;41676;44.610;44.078;2023-08-20T22:43:09;9.50;;;3.00;;
55756;SDS011;41676;44.610;44.078;2023-08-20T22:48:10;13.25;;;3.17;;
55756;SDS011;41676;44.610;44.078;2023-08-20T22:53:11;6.68;;;2.72;;
55756;SDS011;41676;44.610;44.078;2023-08-20T22:58:12;12.73;;;3.13;;
55756;SDS011;41676;44.610;44.078;2023-08-20T23:03:13;11.25;;;2.80;;
55756;SDS011;41676;44.610;44.078;2023-08-20T23:08:13;6.43;;;2.45;;
55756;SDS011;41676;44.610;44.078;2023-08-20T23:13:14;9.15;;;2.53;;
55756;SDS011;41676;44.610;44.078;2023-08-20T23:18:15;11.93;;;3.10;;
55756;SDS011;41676;44.610;44.078;2023-08-20T23:23:16;9.10;;;2.88;;
55756;SDS011;41676;44.610;44.078;2023-08-20T23:28:16;9.07;;;3.15;;
55756;SDS011;41676;44.610;44.078;2023-08-20T23:33:17;11.95;;;3.58;;
55756;SDS011;41676;44.610;44.078;2023-08-20T23:38:18;10.60;;;3.10;;
55756;SDS011;41676;44.610;44.078;2023-08-20T23:43:19;8.80;;;3.40;;
55756;SDS011;41676;44.610;44.078;2023-08-20T23:48:22;16.77;;;3.43;;
55756;SDS011;41676;44.610;44.078;2023-08-20T23:53:23;11.88;;;3.42;;
55756;SDS011;41676;44.610;44.078;2023-08-20T23:58:23;14.77;;;3.65;;
